Time;durP1;ratioP1;P1;durP2;ratioP2;P2;SDS_P1;SDS_P2;PMS_P1;PMS_P2;Temp;Humidity;BMP_temperature;BMP_pressure;BME280_temperature;BME280_humidity;BME280_pressure;Samples;Min_cycle;Max_cycle;Signal;HPM_P1;HPM_P2
2022/10/20 00:10:03;;;;;;;0.40;0.40;;;;;;;8.56;62.16;101389.09;18303615;32;20098;-58
2022/10/20 00:20:07;;;;;;;0.60;0.60;;;;;;;8.04;63.56;101399.16;18303282;32;20085;-59
2022/10/20 00:30:12;;;;;;;0.52;0.52;;;;;;;8.27;62.04;101427.44;18302406;32;20145;-58
2022/10/20 00:40:15;;;;;;;0.60;0.60;;;;;;;8.26;62.44;101428.28;18302023;32;20101;-58
2022/10/20 00:50:21;;;;;;;0.43;0.43;;;;;;;8.09;63.19;101428.75;18305342;32;20116;-59
2022/10/20 01:00:25;;;;;;;0.93;0.88;;;;;;;8.17;62.76;101424.63;18309449;32;20131;-58
2022/10/20 01:10:35;;;;;;;0.60;0.60;;;;;;;8.21;62.36;101422.97;18309253;32;20089;-58
2022/10/20 01:20:50;;;;;;;0.70;0.70;;;;;;;8.13;62.45;101417.56;18310135;32;20086;-58
2022/10/20 01:30:57;;;;;;;0.60;0.60;;;;;;;7.81;63.15;101428.06;18308734;32;20089;-58
2022/10/20 01:41:03;;;;;;;0.45;0.45;;;;;;;7.75;62.62;101431.38;18289198;32;20111;-58
2022/10/20 01:51:08;;;;;;;0.50;0.50;;;;;;;7.64;62.63;101438.03;18245747;32;20090;-58
2022/10/20 02:01:18;;;;;;;0.50;0.50;;;;;;;7.45;62.92;101434.03;18243968;32;20105;-59
2022/10/20 02:11:25;;;;;;;0.70;0.70;;;;;;;7.44;62.92;101432.28;18244344;32;20098;-59
2022/10/20 02:21:28;;;;;;;0.50;0.50;;;;;;;7.40;62.39;101435.62;18244884;32;20106;-59
2022/10/20 02:31:33;;;;;;;0.60;0.60;;;;;;;7.16;62.74;101444.50;18243200;32;20116;-58
2022/10/20 02:41:36;;;;;;;0.57;0.57;;;;;;;6.94;63.68;101447.34;18243147;32;20102;-58
2022/10/20 02:51:40;;;;;;;0.43;0.43;;;;;;;6.89;62.98;101456.72;18243858;32;20141;-58
2022/10/20 03:01:44;;;;;;;0.62;0.62;;;;;;;6.70;63.92;101460.47;18242565;32;20729;-58
2022/10/20 03:11:48;;;;;;;0.50;0.50;;;;;;;6.79;63.02;101463.34;18241378;32;20160;-58
2022/10/20 03:21:51;;;;;;;0.60;0.60;;;;;;;6.62;62.88;101468.00;18242107;32;20189;-58
2022/10/20 03:31:56;;;;;;;0.70;0.70;;;;;;;6.43;62.92;101486.44;18241748;32;20094;-58
2022/10/20 03:41:59;;;;;;;0.60;0.60;;;;;;;6.01;64.34;101497.97;18240243;32;20363;-58
2022/10/20 03:52:04;;;;;;;0.50;0.50;;;;;;;6.05;64.23;101513.72;18241455;32;20092;-58
2022/10/20 04:02:07;;;;;;;0.70;0.70;;;;;;;6.04;63.37;101508.47;18242074;32;20098;-58
2022/10/20 04:12:11;;;;;;;0.70;0.70;;;;;;;6.07;63.05;101511.16;18240692;32;20130;-58
2022/10/20 04:22:14;;;;;;;0.77;0.77;;;;;;;5.97;63.84;101500.47;18265523;32;20133;-58
2022/10/20 04:32:19;;;;;;;0.55;0.55;;;;;;;5.90;63.59;101508.84;18301488;32;20175;-58
2022/10/20 04:42:22;;;;;;;0.62;0.62;;;;;;;5.87;63.45;101508.72;18301380;32;20428;-59
2022/10/20 04:52:26;;;;;;;0.60;0.60;;;;;;;5.58;64.48;101505.97;18301422;32;20147;-58
2022/10/20 05:02:30;;;;;;;1.02;1.02;;;;;;;5.67;63.43;101505.44;18300935;32;20105;-58
2022/10/20 05:12:34;;;;;;;0.60;0.60;;;;;;;5.31;64.73;101511.03;18300370;32;20164;-58
2022/10/20 05:22:38;;;;;;;0.70;0.70;;;;;;;5.54;64.09;101532.63;18299387;32;20390;-58
2022/10/20 05:32:43;;;;;;;0.60;0.60;;;;;;;5.45;65.13;101534.87;18261593;32;20103;-58
2022/10/20 05:42:46;;;;;;;0.70;0.70;;;;;;;5.77;64.15;101545.50;18244998;32;20615;-58
2022/10/20 05:52:50;;;;;;;0.50;0.50;;;;;;;5.75;65.49;101565.31;18243921;32;20117;-58
2022/10/20 06:02:54;;;;;;;0.82;0.82;;;;;;;6.11;64.13;101578.72;18244045;32;20098;-58
2022/10/20 06:12:58;;;;;;;0.50;0.50;;;;;;;6.25;65.34;101583.53;18240742;32;20094;-58
2022/10/20 06:23:01;;;;;;;0.60;0.60;;;;;;;6.64;64.73;101597.81;18258122;32;20130;-58
2022/10/20 06:33:07;;;;;;;0.55;0.55;;;;;;;7.12;65.36;101607.13;18243078;32;20119;-58
2022/10/20 06:43:10;;;;;;;0.70;0.70;;;;;;;8.33;64.64;101623.59;18244200;32;20120;-58
2022/10/20 06:53:14;;;;;;;0.50;0.50;;;;;;;10.04;62.08;101621.44;18242389;32;20094;-58
2022/10/20 07:03:17;;;;;;;0.50;0.50;;;;;;;11.92;57.81;101629.66;18242755;32;20132;-59
2022/10/20 07:13:22;;;;;;;0.40;0.40;;;;;;;14.28;50.91;101629.59;18242637;32;20145;-59
2022/10/20 07:23:26;;;;;;;0.40;0.40;;;;;;;14.69;49.31;101633.13;18242284;32;20116;-59
2022/10/20 07:33:30;;;;;;;1.02;0.90;;;;;;;14.43;50.92;101641.88;18241785;32;20116;-59
2022/10/20 07:43:33;;;;;;;0.60;0.60;;;;;;;14.27;51.85;101641.84;18249730;32;20097;-59
2022/10/20 07:53:38;;;;;;;0.40;0.40;;;;;;;13.51;52.99;101648.53;18239717;32;20129;-59
2022/10/20 08:03:41;;;;;;;0.37;0.37;;;;;;;13.74;51.48;101641.66;18240403;32;20526;-58
2022/10/20 08:13:45;;;;;;;0.40;0.40;;;;;;;13.11;52.16;101646.50;18237560;32;20483;-59
2022/10/20 08:23:49;;;;;;;0.50;0.50;;;;;;;14.41;49.46;101638.34;18251862;32;20167;-59
2022/10/20 08:33:54;;;;;;;1.33;0.88;;;;;;;14.57;50.06;101641.91;18239172;32;20098;-59
2022/10/20 08:43:57;;;;;;;0.55;0.50;;;;;;;14.83;49.45;101649.81;18238823;32;20112;-59
2022/10/20 08:54:02;;;;;;;0.52;0.52;;;;;;;14.88;48.46;101648.94;18239436;32;20164;-59
2022/10/20 09:04:15;;;;;;;0.40;0.40;;;;;;;15.36;47.56;101649.75;18238970;32;20112;-59
2022/10/20 09:14:20;;;;;;;0.40;0.40;;;;;;;15.61;46.38;101654.97;18243103;32;20074;-59
2022/10/20 09:24:26;;;;;;;0.40;0.40;;;;;;;16.05;45.13;101645.16;18245281;32;20098;-59
2022/10/20 09:34:32;;;;;;;0.50;0.50;;;;;;;15.64;46.53;101644.41;18245115;32;20398;-57
2022/10/20 09:44:44;;;;;;;0.30;0.30;;;;;;;15.61;46.48;101648.84;18244871;32;20097;-57
2022/10/20 09:54:50;;;;;;;0.30;0.30;;;;;;;15.49;46.48;101645.34;18245094;32;20140;-57
2022/10/20 10:04:54;;;;;;;0.32;0.32;;;;;;;15.83;44.34;101631.19;18244306;32;20113;-57
2022/10/20 10:15:00;;;;;;;0.30;0.30;;;;;;;15.74;44.98;101628.59;18244902;32;20176;-57
2022/10/20 10:25:05;;;;;;;0.62;0.60;;;;;;;16.35;44.48;101616.00;18244210;32;20438;-57
2022/10/20 10:35:21;;;;;;;0.40;0.40;;;;;;;16.59;43.19;101614.94;18243166;32;20090;-57
2022/10/20 10:45:37;;;;;;;0.40;0.40;;;;;;;16.99;40.49;101602.28;18247824;32;20112;-57
2022/10/20 10:55:49;;;;;;;0.40;0.40;;;;;;;17.48;40.84;101580.66;18287939;32;20439;-57
2022/10/20 11:06:01;;;;;;;0.23;0.23;;;;;;;17.20;41.03;101585.41;18306058;32;20085;-57
2022/10/20 11:16:16;;;;;;;0.25;0.25;;;;;;;17.60;39.82;101561.16;18306647;32;20169;-57
2022/10/20 11:26:23;;;;;;;0.35;0.35;;;;;;;17.57;40.45;101541.84;18300590;32;156138;-57
2022/10/20 11:36:37;;;;;;;0.30;0.30;;;;;;;17.71;39.76;101533.75;18305175;32;20149;-57
2022/10/20 11:46:45;;;;;;;0.30;0.30;;;;;;;17.73;40.68;101522.28;18304937;32;20116;-57
2022/10/20 11:56:58;;;;;;;0.37;0.37;;;;;;;17.87;38.99;101515.91;18305263;32;20149;-57
2022/10/20 12:07:33;;;;;;;0.30;0.30;;;;;;;17.61;40.32;101501.34;18166339;32;20153;-57
2022/10/20 12:17:45;;;;;;;0.55;0.40;;;;;;;17.21;39.57;101497.44;18067316;32;20166;-57
2022/10/20 12:28:26;;;;;;;0.30;0.30;;;;;;;17.10;41.94;101489.66;18181998;32;20153;-58
2022/10/20 12:38:31;;;;;;;0.45;0.40;;;;;;;17.46;40.36;101486.59;18162488;32;20122;-57
2022/10/20 12:48:45;;;;;;;0.30;0.30;;;;;;;16.91;41.84;101466.09;18192049;32;20094;-57
2022/10/20 12:59:38;;;;;;;1.15;0.30;;;;;;;17.36;40.14;101456.78;18246255;32;20101;-57
2022/10/20 13:09:55;;;;;;;0.80;0.73;;;;;;;17.54;40.34;101441.59;17975016;33;20115;-57
2022/10/20 13:20:18;;;;;;;0.30;0.30;;;;;;;17.65;39.19;101433.53;17987020;33;20154;-57
2022/10/20 13:30:23;;;;;;;0.30;0.30;;;;;;;17.80;39.10;101427.13;18004130;32;20359;-58
2022/10/20 13:40:33;;;;;;;0.30;0.30;;;;;;;17.66;38.35;101433.47;18213955;32;20148;-58
2022/10/20 13:50:42;;;;;;;0.47;0.47;;;;;;;17.68;38.40;101428.19;18241381;32;20094;-58
2022/10/20 14:00:56;;;;;;;0.30;0.30;;;;;;;17.89;37.57;101425.19;18242910;32;20167;-58
2022/10/20 14:11:03;;;;;;;0.35;0.35;;;;;;;17.88;37.65;101414.66;18303892;32;20085;-58
2022/10/20 14:21:08;;;;;;;0.37;0.37;;;;;;;17.70;37.90;101414.06;18303842;32;20094;-58
2022/10/20 14:31:13;;;;;;;0.28;0.28;;;;;;;17.73;37.50;101410.47;18303495;32;20377;-58
2022/10/20 14:41:24;;;;;;;0.40;0.40;;;;;;;17.61;39.28;101403.66;18298813;32;20119;-58
2022/10/20 14:51:35;;;;;;;0.20;0.20;;;;;;;17.32;39.66;101399.69;18306098;32;20370;-58
2022/10/20 15:01:38;;;;;;;0.30;0.30;;;;;;;17.01;41.31;101400.09;18305425;32;20105;-58
2022/10/20 15:11:43;;;;;;;0.30;0.30;;;;;;;16.81;41.81;101392.41;18305674;32;20089;-58
2022/10/20 15:21:46;;;;;;;0.32;0.32;;;;;;;16.58;42.03;101380.34;18305386;32;20116;-58
2022/10/20 15:31:52;;;;;;;0.40;0.40;;;;;;;16.22;43.25;101375.47;18304368;32;20533;-58
2022/10/20 15:41:55;;;;;;;0.20;0.20;;;;;;;15.65;46.36;101372.47;18296791;32;20548;-59
2022/10/20 15:52:00;;;;;;;0.40;0.40;;;;;;;15.06;48.75;101377.22;18300528;32;20117;-58
2022/10/20 16:02:03;;;;;;;0.30;0.30;;;;;;;14.51;50.21;101366.91;18300588;32;20163;-58
2022/10/20 16:12:08;;;;;;;0.40;0.40;;;;;;;13.93;51.75;101371.34;18299530;32;20120;-58
2022/10/20 16:22:31;;;;;;;0.40;0.40;;;;;;;13.25;53.25;101390.53;18240797;32;20093;-58
2022/10/20 16:32:56;;;;;;;0.37;0.37;;;;;;;12.81;54.23;101389.50;18298691;32;20102;-58
2022/10/20 16:43:00;;;;;;;0.37;0.37;;;;;;;12.33;55.39;101389.22;18296984;32;20143;-58
2022/10/20 16:53:04;;;;;;;0.50;0.50;;;;;;;11.98;55.32;101398.56;18287073;32;20125;-57
2022/10/20 17:03:07;;;;;;;0.30;0.30;;;;;;;11.77;55.23;101407.97;18298235;32;20132;-57
2022/10/20 17:13:12;;;;;;;17.48;1.20;;;;;;;11.30;56.35;101411.00;18296018;32;20352;-57
2022/10/20 17:23:15;;;;;;;0.50;0.50;;;;;;;11.04;57.51;101415.03;18296460;32;20433;-57
2022/10/20 17:33:20;;;;;;;0.45;0.45;;;;;;;10.64;58.94;101407.59;18297675;32;20101;-56
2022/10/20 17:43:23;;;;;;;0.52;0.52;;;;;;;10.24;60.26;101422.59;18302027;32;20101;-57
2022/10/20 17:53:28;;;;;;;0.62;0.62;;;;;;;10.26;58.55;101427.00;18300694;32;20116;-57
2022/10/20 18:03:32;;;;;;;0.60;0.60;;;;;;;10.06;59.06;101431.91;18305060;32;20137;-57
2022/10/20 18:13:37;;;;;;;0.73;0.73;;;;;;;9.71;59.67;101427.84;18303714;32;20137;-57
2022/10/20 18:23:42;;;;;;;0.60;0.60;;;;;;;9.56;60.06;101423.22;18303049;32;20433;-56
2022/10/20 18:33:48;;;;;;;0.68;0.68;;;;;;;9.25;60.19;101420.03;18248616;32;20117;-56
2022/10/20 18:43:52;;;;;;;1.20;1.10;;;;;;;8.95;61.07;101417.69;18254499;32;20149;-56
2022/10/20 18:54:01;;;;;;;1.08;0.98;;;;;;;8.81;61.74;101425.19;18243012;32;20090;-56
2022/10/20 19:04:05;;;;;;;0.50;0.50;;;;;;;8.63;62.21;101407.47;18250018;32;20101;-56
2022/10/20 19:14:11;;;;;;;0.80;0.80;;;;;;;8.62;62.18;101413.53;18254313;32;20116;-56
2022/10/20 19:24:17;;;;;;;0.70;0.70;;;;;;;8.50;62.51;101430.59;18242074;32;20089;-56
2022/10/20 19:34:24;;;;;;;1.40;1.27;;;;;;;8.43;61.60;101426.09;18243007;32;20125;-56
2022/10/20 19:44:28;;;;;;;8.98;0.90;;;;;;;8.16;61.76;101435.88;18241983;32;20129;-56
2022/10/20 19:54:33;;;;;;;2.00;1.85;;;;;;;7.98;62.20;101445.81;18240446;32;20113;-56
2022/10/20 20:04:36;;;;;;;0.50;0.50;;;;;;;7.89;62.56;101438.66;18252498;32;20102;-56
2022/10/20 20:14:41;;;;;;;0.50;0.50;;;;;;;7.74;62.26;101424.44;18240711;32;20153;-56
2022/10/20 20:24:44;;;;;;;1.20;1.15;;;;;;;7.67;62.29;101443.28;18240337;32;20398;-58
2022/10/20 20:34:49;;;;;;;1.67;1.58;;;;;;;7.61;62.45;101446.63;18239584;32;20164;-58
2022/10/20 20:44:53;;;;;;;0.47;0.47;;;;;;;7.29;62.94;101428.41;18239314;32;20089;-58
2022/10/20 20:54:57;;;;;;;1.37;1.10;;;;;;;7.13;62.79;101434.03;18238554;32;20113;-56
2022/10/20 21:05:00;;;;;;;0.40;0.40;;;;;;;7.05;63.12;101437.28;18258355;32;20513;-58
2022/10/20 21:15:06;;;;;;;0.75;0.70;;;;;;;6.93;62.73;101435.19;18247135;32;20167;-57
2022/10/20 21:25:09;;;;;;;0.80;0.80;;;;;;;6.87;62.48;101440.19;18244314;32;20179;-58
2022/10/20 21:35:13;;;;;;;0.98;0.98;;;;;;;6.69;63.18;101435.34;18256792;32;20357;-58
2022/10/20 21:45:17;;;;;;;0.57;0.57;;;;;;;6.60;63.16;101427.28;18253439;32;20090;-58
2022/10/20 21:55:22;;;;;;;0.40;0.40;;;;;;;6.48;63.37;101436.44;18244554;32;20116;-58
2022/10/20 22:05:25;;;;;;;0.73;0.73;;;;;;;6.40;63.30;101432.72;18244363;32;20117;-58
2022/10/20 22:15:30;;;;;;;0.88;0.88;;;;;;;6.17;63.87;101429.41;18243458;32;20336;-58
2022/10/20 22:25:36;;;;;;;1.10;1.08;;;;;;;6.21;63.11;101431.25;18243841;32;20116;-58
2022/10/20 22:35:40;;;;;;;0.80;0.80;;;;;;;6.17;63.57;101430.28;18243546;32;20439;-58
2022/10/20 22:45:44;;;;;;;0.40;0.40;;;;;;;6.01;63.37;101439.22;18243304;32;20109;-58
2022/10/20 22:55:48;;;;;;;0.50;0.50;;;;;;;6.11;62.87;101440.44;18241855;32;20746;-60
2022/10/20 23:05:51;;;;;;;0.60;0.60;;;;;;;5.90;63.50;101445.75;18253123;32;20113;-59
2022/10/20 23:15:56;;;;;;;0.52;0.52;;;;;;;5.86;63.91;101443.91;18299894;32;20133;-59
2022/10/20 23:25:59;;;;;;;0.60;0.60;;;;;;;5.85;63.93;101431.78;18299985;32;20108;-58
2022/10/20 23:36:08;;;;;;;1.55;1.23;;;;;;;5.77;64.00;101421.13;18301527;32;20167;-59
2022/10/20 23:46:12;;;;;;;0.60;0.60;;;;;;;5.68;64.30;101416.53;18301887;32;20098;-59
2022/10/20 23:56:16;;;;;;;0.65;0.65;;;;;;;5.64;64.68;101422.41;18301413;32;20489;-59
